Accueil
METAR-TAF:

METAR-TAF

Aéroports :

Aéroport international de Pékin-Capitale

Pékin, Chine

latitude: 39-56N, longitude: 116-17E, altitude: 55 m

Observation

Le bulletin a été fait il y a 39 minutes, à 09:30 UTC
Vent 8 kt de sud
Température 9°C
Humidité 23%
Pression 1025 hPa
Visibilité: 6000 m

METAR: ZBAA 210930Z 19004MPS 6000 NSC 09/M11 Q1025 NOSIG

Heure: 18:09 (10:09 UTC)

Prévision

Le bulletin a été fait il y a 6 heures et 39 minutes, à 03:30 UTC
Prévision valable du 21 à 06 UTC au 22 à 06 UTC
Vent 8 kt de nord
Visibilité: 7000 m

TAF: ZBAA 210330Z 2106/2206 01004MPS 7000 NSC TX11/2107Z TNM06/22Z

Observations et prévisions météorologiques de plus de 4000 aéroports (messages METAR et TAF).

Les stations disponibles sont représentées par des disques jaunes et rouges sur la carte.

Passer la souris dessus pour voir le nom de la station.

Cliquer dessus pour voir les observations et prévisions météorologiques.

Pour changer de carte: cliquez sur les boutons verts avec une croix noire pour zoomer, sur le bouton vert avec un tiret pour effectuer un zoom arrière, ou sur les flèches vertes pour les cartes adjacentes.


METAR-TAF: